createdAt,value
2023-04-10T00:01:08.311Z,76.58
2023-04-10T00:03:46.857Z,76.66
2023-04-10T00:06:28.593Z,76.77
2023-04-10T00:09:06.582Z,77.01
2023-04-10T00:11:37.144Z,76.81
2023-04-10T00:14:11.950Z,77.00
2023-04-10T00:16:49.734Z,77.44
2023-04-10T00:19:28.156Z,77.32
2023-04-10T00:22:06.285Z,77.77
2023-04-10T00:24:44.308Z,77.77
2023-04-10T00:27:16.121Z,77.60
2023-04-10T00:29:54.619Z,77.95
2023-04-10T00:32:32.861Z,77.60
2023-04-10T00:35:04.263Z,77.73
2023-04-10T00:37:36.333Z,77.79
2023-04-10T00:40:13.324Z,77.78
2023-04-10T00:42:51.760Z,77.76
2023-04-10T00:45:31.222Z,78.00
2023-04-10T00:48:06.506Z,78.14
2023-04-10T00:50:45.173Z,78.29
2023-04-10T00:53:23.326Z,79.21
2023-04-10T00:56:02.221Z,79.32
2023-04-10T00:58:41.098Z,79.12
2023-04-10T01:01:19.371Z,79.17
2023-04-10T01:03:58.188Z,79.02
2023-04-10T01:07:01.160Z,78.85
2023-04-10T01:10:19.117Z,79.26
2023-04-10T01:13:08.293Z,79.77
2023-04-10T01:16:16.355Z,79.65
2023-04-10T01:19:22.780Z,79.51
2023-04-10T01:22:04.870Z,79.45
2023-04-10T01:25:43.601Z,78.99
2023-04-10T01:28:20.268Z,78.85
2023-04-10T01:31:02.304Z,78.95
2023-04-10T01:33:54.621Z,79.14
2023-04-10T01:36:51.580Z,79.00
2023-04-10T01:39:30.725Z,79.07
2023-04-10T01:42:10.589Z,79.16
2023-04-10T01:44:44.978Z,78.81
2023-04-10T01:47:24.538Z,78.59
2023-04-10T01:50:03.298Z,78.94
2023-04-10T01:52:35.002Z,79.23
2023-04-10T01:55:10.181Z,78.87
2023-04-10T01:57:50.105Z,78.83
2023-04-10T02:00:27.685Z,78.82
2023-04-10T02:03:06.405Z,78.68
2023-04-10T02:06:41.169Z,78.53
2023-04-10T02:09:47.187Z,78.52
2023-04-10T02:12:28.460Z,78.58
2023-04-10T02:15:09.187Z,78.63
2023-04-10T02:17:48.183Z,78.25
2023-04-10T02:20:27.712Z,78.37
2023-04-10T02:23:06.970Z,78.30
2023-04-10T02:25:37.370Z,78.64
2023-04-10T02:28:13.387Z,78.94
2023-04-10T02:30:49.881Z,78.64
2023-04-10T02:33:20.030Z,78.43
2023-04-10T02:35:59.424Z,78.63
2023-04-10T02:38:37.314Z,78.72
2023-04-10T02:41:16.002Z,79.06
2023-04-10T02:43:46.716Z,78.65
2023-04-10T02:46:18.097Z,78.68
2023-04-10T02:48:54.142Z,78.55
2023-04-10T02:51:35.471Z,78.67
2023-04-10T02:54:05.989Z,78.74
2023-04-10T02:56:45.189Z,78.85
2023-04-10T02:59:23.345Z,78.81
2023-04-10T03:01:58.279Z,78.69
2023-04-10T03:04:36.662Z,78.49
2023-04-10T03:07:14.759Z,78.76
2023-04-10T03:09:52.584Z,78.72
2023-04-10T03:12:23.640Z,78.75
2023-04-10T03:14:55.053Z,78.72
2023-04-10T03:17:34.043Z,78.62
2023-04-10T03:20:13.637Z,78.88
2023-04-10T03:22:52.044Z,78.98
2023-04-10T03:25:32.111Z,79.08
2023-04-10T03:28:11.377Z,79.04
2023-04-10T03:30:49.519Z,79.02
2023-04-10T03:33:27.360Z,78.80
2023-04-10T03:36:05.960Z,78.89
2023-04-10T03:38:44.131Z,79.03
2023-04-10T03:41:24.220Z,79.26
2023-04-10T03:44:04.471Z,79.53
2023-04-10T03:46:42.858Z,79.68
2023-04-10T03:49:21.249Z,79.47
2023-04-10T03:51:51.501Z,79.23
2023-04-10T03:54:29.960Z,79.31
2023-04-10T03:57:02.163Z,79.30
2023-04-10T03:59:38.870Z,79.30
2023-04-10T04:02:16.774Z,78.74
2023-04-10T04:04:55.590Z,79.72
2023-04-10T04:07:34.014Z,79.98
2023-04-10T04:10:06.124Z,79.31
2023-04-10T04:12:37.528Z,79.09
2023-04-10T04:15:17.167Z,78.94
2023-04-10T04:17:56.049Z,78.84
2023-04-10T04:20:34.210Z,78.83
2023-04-10T04:23:12.165Z,78.60
2023-04-10T04:25:53.014Z,78.81
2023-04-10T04:28:24.361Z,78.83
2023-04-10T04:30:56.744Z,78.58
2023-04-10T04:33:34.718Z,78.62
2023-04-10T04:36:14.153Z,78.64
2023-04-10T04:38:51.335Z,78.82
2023-04-10T04:41:32.754Z,78.58
2023-04-10T04:44:07.693Z,78.69
2023-04-10T04:46:47.464Z,78.33
2023-04-10T04:49:25.626Z,78.26
2023-04-10T04:52:02.647Z,78.37
2023-04-10T04:54:40.054Z,78.56
2023-04-10T04:57:17.456Z,78.75
2023-04-10T04:59:55.230Z,78.52
2023-04-10T05:02:33.705Z,78.32
2023-04-10T05:05:12.799Z,78.46
2023-04-10T05:07:42.994Z,78.22
2023-04-10T05:10:18.493Z,78.01
2023-04-10T05:12:55.809Z,78.19
2023-04-10T05:15:27.217Z,78.31
2023-04-10T05:18:06.208Z,78.21
2023-04-10T05:20:43.958Z,78.05
2023-04-10T05:23:22.315Z,77.63
2023-04-10T05:26:00.807Z,77.39
2023-04-10T05:28:37.103Z,77.79
2023-04-10T05:31:15.164Z,78.06
2023-04-10T05:33:52.988Z,78.04
2023-04-10T05:36:24.037Z,77.74
2023-04-10T05:39:00.165Z,77.49
2023-04-10T05:41:38.889Z,77.47
2023-04-10T05:44:16.309Z,78.23
2023-04-10T05:46:54.059Z,78.36
2023-04-10T05:49:33.780Z,78.17
2023-04-10T05:52:11.947Z,78.29
2023-04-10T05:54:49.842Z,78.01
2023-04-10T05:57:27.927Z,78.09
2023-04-10T06:00:06.483Z,76.84
2023-04-10T06:02:44.820Z,76.69
2023-04-10T06:05:22.672Z,77.11
2023-04-10T06:08:00.040Z,75.81
2023-04-10T06:10:33.737Z,72.92
2023-04-10T06:13:04.825Z,70.34
2023-04-10T06:15:36.427Z,68.37
2023-04-10T06:18:15.073Z,68.05
2023-04-10T06:20:52.237Z,67.74
2023-04-10T06:23:28.983Z,67.32
2023-04-10T06:26:06.396Z,67.86
2023-04-10T06:28:45.457Z,65.52
2023-04-10T06:31:15.933Z,65.47
2023-04-10T06:33:53.283Z,64.69
2023-04-10T06:36:24.432Z,63.21
2023-04-10T06:39:01.234Z,61.64
2023-04-10T06:41:39.576Z,62.23
2023-04-10T06:44:18.151Z,61.61
2023-04-10T06:46:56.227Z,60.50
2023-04-10T06:49:33.743Z,62.21
2023-04-10T06:52:11.712Z,61.29
2023-04-10T06:54:49.864Z,59.66
2023-04-10T06:57:26.640Z,59.95
2023-04-10T07:00:03.941Z,59.80
2023-04-10T07:02:34.268Z,59.43
2023-04-10T07:05:07.214Z,59.59
2023-04-10T07:07:41.735Z,58.32
2023-04-10T07:10:19.627Z,58.08
2023-04-10T07:12:57.928Z,58.36
2023-04-10T07:15:28.354Z,58.26
2023-04-10T07:18:05.896Z,57.06
2023-04-10T07:20:43.446Z,56.36
2023-04-10T07:23:21.580Z,55.68
2023-04-10T07:26:00.271Z,57.25
2023-04-10T07:28:38.644Z,57.20
2023-04-10T07:31:18.154Z,57.30
2023-04-10T07:33:56.330Z,57.26
2023-04-10T07:36:27.415Z,57.08
2023-04-10T07:38:57.504Z,55.91
2023-04-10T07:41:37.742Z,55.85
2023-04-10T07:44:16.022Z,55.67
2023-04-10T07:46:54.197Z,53.90
2023-04-10T07:49:32.569Z,54.19
2023-04-10T07:52:04.191Z,53.19
2023-04-10T07:54:43.364Z,52.83
2023-04-10T07:57:20.942Z,53.56
2023-04-10T07:59:52.108Z,53.27
2023-04-10T08:02:23.914Z,51.72
2023-04-10T08:05:02.353Z,50.82
2023-04-10T08:07:40.039Z,49.17
2023-04-10T08:10:18.176Z,49.52
2023-04-10T08:12:57.022Z,48.77
2023-04-10T08:15:30.262Z,49.12
2023-04-10T08:18:09.287Z,48.97
2023-04-10T08:20:46.504Z,49.84
2023-04-10T08:23:24.216Z,48.94
2023-04-10T08:26:01.774Z,47.64
2023-04-10T08:28:40.227Z,47.42
2023-04-10T08:31:18.250Z,47.61
2023-04-10T08:33:50.330Z,46.83
2023-04-10T08:36:24.522Z,46.69
2023-04-10T08:39:02.407Z,46.43
2023-04-10T08:41:42.529Z,45.62
2023-04-10T08:44:19.129Z,46.02
2023-04-10T08:47:00.374Z,44.87
2023-04-10T08:49:54.480Z,44.16
2023-04-10T08:52:35.608Z,46.75
2023-04-10T08:55:10.782Z,46.64
2023-04-10T08:57:54.115Z,46.21
2023-04-10T09:00:40.795Z,46.05
2023-04-10T09:03:16.715Z,44.21
2023-04-10T09:05:49.604Z,43.85
2023-04-10T09:08:26.268Z,44.25
2023-04-10T09:11:06.158Z,43.82
2023-04-10T09:13:47.896Z,43.90
2023-04-10T09:16:31.360Z,44.30
2023-04-10T09:19:06.434Z,44.02
2023-04-10T09:21:51.368Z,42.82
2023-04-10T09:24:29.327Z,42.42
2023-04-10T09:27:07.190Z,41.36
2023-04-10T09:29:52.531Z,41.33
2023-04-10T09:32:50.445Z,41.55
2023-04-10T09:35:25.309Z,41.62
2023-04-10T09:38:03.422Z,41.50
2023-04-10T09:40:41.769Z,41.23
2023-04-10T09:43:29.577Z,40.79
2023-04-10T09:46:08.654Z,40.55
2023-04-10T09:49:00.146Z,40.84
2023-04-10T09:51:39.699Z,40.34
2023-04-10T09:54:18.609Z,41.83
2023-04-10T09:56:57.323Z,41.51
2023-04-10T09:59:37.565Z,41.42
2023-04-10T10:02:19.251Z,40.98
2023-04-10T10:05:01.335Z,42.06
2023-04-10T10:07:40.667Z,41.26
2023-04-10T10:10:18.496Z,41.94
2023-04-10T10:13:01.832Z,40.38
2023-04-10T10:15:54.564Z,40.48
2023-04-10T10:19:02.035Z,40.85
2023-04-10T10:21:43.995Z,41.07
2023-04-10T10:24:26.715Z,40.88
2023-04-10T10:27:06.909Z,42.07
2023-04-10T10:29:47.366Z,41.13
2023-04-10T10:32:26.363Z,40.94
2023-04-10T10:35:08.567Z,41.59
2023-04-10T10:37:48.074Z,41.78
2023-04-10T10:40:30.498Z,41.87
2023-04-10T10:43:49.222Z,41.17
2023-04-10T10:46:49.833Z,41.47
2023-04-10T10:50:03.880Z,41.06
2023-04-10T10:52:57.884Z,39.52
2023-04-10T10:55:38.908Z,40.75
2023-04-10T10:58:18.806Z,40.10
2023-04-10T11:01:00.745Z,40.06
2023-04-10T11:03:39.551Z,39.22
2023-04-10T11:06:22.154Z,39.70
2023-04-10T11:09:00.159Z,40.42
2023-04-10T11:12:02.275Z,40.08
2023-04-10T11:14:42.935Z,40.54
2023-04-10T11:17:52.305Z,39.29
2023-04-10T11:20:29.124Z,40.42
2023-04-10T11:23:12.814Z,39.11
2023-04-10T11:25:53.691Z,41.89
2023-04-10T11:28:39.265Z,43.28
2023-04-10T11:31:27.442Z,43.05
2023-04-10T11:34:10.977Z,42.78
2023-04-10T11:36:49.563Z,42.05
2023-04-10T11:39:28.103Z,41.10
2023-04-10T11:42:07.797Z,40.86
2023-04-10T11:44:48.736Z,40.01
2023-04-10T11:47:27.880Z,39.46
2023-04-10T11:50:07.177Z,40.30
2023-04-10T11:52:45.370Z,40.40
2023-04-10T11:55:38.638Z,40.23
2023-04-10T11:58:34.220Z,40.90
2023-04-10T12:01:14.740Z,41.57
2023-04-10T12:03:45.010Z,42.44
2023-04-10T12:06:24.115Z,42.23
2023-04-10T12:09:02.671Z,40.95
2023-04-10T12:11:41.154Z,41.01
2023-04-10T12:14:19.946Z,40.21
2023-04-10T12:16:59.004Z,40.68
2023-04-10T12:19:37.578Z,40.09
2023-04-10T12:22:17.236Z,39.80
2023-04-10T12:24:56.502Z,40.13
2023-04-10T12:27:36.000Z,39.72
2023-04-10T12:30:14.957Z,39.66
2023-04-10T12:32:58.007Z,40.10
2023-04-10T12:35:47.183Z,40.12
2023-04-10T12:38:47.242Z,39.55
2023-04-10T12:41:37.482Z,38.89
2023-04-10T12:44:14.733Z,39.45
2023-04-10T12:47:02.253Z,39.37
2023-04-10T12:49:40.617Z,39.85
2023-04-10T12:52:24.928Z,39.61
2023-04-10T12:54:55.999Z,39.05
2023-04-10T12:57:37.527Z,39.02
2023-04-10T13:00:18.119Z,38.12
2023-04-10T13:02:57.740Z,36.80
2023-04-10T13:05:37.232Z,37.54
2023-04-10T13:08:17.335Z,37.78
2023-04-10T13:10:58.711Z,37.79
2023-04-10T13:13:37.144Z,37.97
2023-04-10T13:16:16.465Z,39.32
2023-04-10T13:18:56.167Z,39.39
2023-04-10T13:21:29.130Z,38.49
2023-04-10T13:24:10.402Z,38.94
2023-04-10T13:26:50.738Z,39.62
2023-04-10T13:29:30.496Z,40.25
2023-04-10T13:32:12.529Z,43.04
2023-04-10T13:34:51.622Z,44.22
2023-04-10T13:37:30.580Z,45.21
2023-04-10T13:40:12.680Z,46.32
2023-04-10T13:42:53.833Z,45.95
2023-04-10T13:45:35.041Z,45.69
2023-04-10T13:48:12.597Z,45.63
2023-04-10T13:50:51.232Z,45.77
2023-04-10T13:53:30.504Z,45.83
2023-04-10T13:56:10.500Z,45.99
2023-04-10T13:58:50.956Z,45.78
2023-04-10T14:01:28.326Z,45.89
2023-04-10T14:04:09.051Z,46.45
2023-04-10T14:06:51.638Z,46.38
2023-04-10T14:09:22.862Z,46.66
2023-04-10T14:11:55.232Z,46.48
2023-04-10T14:14:34.039Z,46.81
2023-04-10T14:17:14.169Z,46.99
2023-04-10T14:19:54.378Z,47.28
2023-04-10T14:22:34.860Z,47.63
2023-04-10T14:25:16.378Z,48.41
2023-04-10T14:27:54.345Z,48.39
2023-04-10T14:30:33.493Z,48.03
2023-04-10T14:33:13.432Z,48.27
2023-04-10T14:35:52.954Z,48.74
2023-04-10T14:38:32.401Z,48.76
2023-04-10T14:41:13.133Z,48.28
2023-04-10T14:43:51.905Z,48.38
2023-04-10T14:46:30.920Z,47.90
2023-04-10T14:49:01.965Z,48.19
2023-04-10T14:51:40.760Z,48.58
2023-04-10T14:54:22.380Z,48.98
2023-04-10T14:57:02.853Z,49.63
2023-04-10T14:59:42.279Z,50.21
2023-04-10T15:02:21.388Z,50.67
2023-04-10T15:05:00.815Z,50.77
2023-04-10T15:07:39.951Z,50.75
2023-04-10T15:10:19.164Z,51.28
2023-04-10T15:12:58.380Z,51.62
2023-04-10T15:15:37.143Z,51.83
2023-04-10T15:18:17.166Z,52.04
2023-04-10T15:20:57.545Z,51.84
2023-04-10T15:23:37.004Z,52.22
2023-04-10T15:26:25.147Z,52.32
2023-04-10T15:29:04.065Z,52.29
2023-04-10T15:31:43.065Z,51.73
2023-04-10T15:34:22.578Z,51.06
2023-04-10T15:37:00.987Z,50.79
2023-04-10T15:39:40.405Z,50.54
2023-04-10T15:42:21.808Z,51.73
2023-04-10T15:44:59.982Z,51.24
2023-04-10T15:47:38.450Z,50.98
2023-04-10T15:50:17.786Z,51.75
2023-04-10T15:52:56.670Z,51.56
2023-04-10T15:55:28.111Z,51.33
2023-04-10T15:58:00.400Z,51.87
2023-04-10T16:00:37.672Z,51.56
2023-04-10T16:03:17.071Z,51.26
2023-04-10T16:05:58.750Z,51.31
2023-04-10T16:08:37.481Z,51.39
2023-04-10T16:11:17.075Z,51.17
2023-04-10T16:13:47.423Z,51.43
2023-04-10T16:16:28.080Z,51.59
2023-04-10T16:19:07.794Z,51.97
2023-04-10T16:21:47.308Z,52.26
2023-04-10T16:24:27.500Z,52.25
2023-04-10T16:27:08.854Z,52.15
2023-04-10T16:29:48.642Z,51.81
2023-04-10T16:32:30.379Z,50.96
2023-04-10T16:35:14.704Z,51.24
2023-04-10T16:37:55.069Z,50.42
2023-04-10T16:40:35.409Z,50.58
2023-04-10T16:43:16.156Z,50.40
2023-04-10T16:46:00.308Z,50.71
2023-04-10T16:48:38.870Z,50.18
2023-04-10T16:51:19.295Z,50.34
2023-04-10T16:53:58.179Z,50.59
2023-04-10T16:56:38.104Z,50.96
2023-04-10T16:59:17.692Z,51.34
2023-04-10T17:01:58.906Z,51.20
2023-04-10T17:04:37.803Z,51.38
2023-04-10T17:07:17.826Z,51.70
2023-04-10T17:09:57.517Z,51.55
2023-04-10T17:12:36.612Z,51.41
2023-04-10T17:15:16.758Z,51.98
2023-04-10T17:17:56.085Z,52.61
2023-04-10T17:20:37.521Z,52.02
2023-04-10T17:23:17.759Z,52.50
2023-04-10T17:25:49.278Z,52.47
2023-04-10T17:28:30.697Z,52.99
2023-04-10T17:31:10.045Z,52.72
2023-04-10T17:33:49.984Z,52.56
2023-04-10T17:36:33.042Z,53.21
2023-04-10T17:39:15.122Z,52.72
2023-04-10T17:41:55.042Z,52.89
2023-04-10T17:44:34.228Z,53.09
2023-04-10T17:47:13.905Z,53.16
2023-04-10T17:49:52.996Z,53.01
2023-04-10T17:52:32.328Z,53.22
2023-04-10T17:55:21.341Z,53.12
2023-04-10T17:58:00.771Z,53.64
2023-04-10T18:00:41.113Z,53.64
2023-04-10T18:03:20.848Z,53.51
2023-04-10T18:06:00.047Z,53.86
2023-04-10T18:08:40.862Z,53.69
2023-04-10T18:11:20.193Z,53.93
2023-04-10T18:13:59.306Z,54.03
2023-04-10T18:16:40.565Z,54.47
2023-04-10T18:19:17.529Z,54.41
2023-04-10T18:21:56.977Z,55.15
2023-04-10T18:24:36.178Z,55.03
2023-04-10T18:27:15.339Z,54.69
2023-04-10T18:29:54.859Z,55.43
2023-04-10T18:32:33.795Z,55.39
2023-04-10T18:35:05.801Z,55.59
2023-04-10T18:37:44.711Z,55.69
2023-04-10T18:40:24.404Z,55.73
2023-04-10T18:43:03.285Z,55.98
2023-04-10T18:45:42.451Z,56.18
2023-04-10T18:48:21.990Z,56.44
2023-04-10T18:51:00.810Z,56.46
2023-04-10T18:53:33.125Z,56.54
2023-04-10T18:56:03.755Z,56.70
2023-04-10T18:58:42.687Z,56.68
2023-04-10T19:01:23.453Z,56.86
2023-04-10T19:03:55.388Z,57.09
2023-04-10T19:06:37.330Z,57.09
2023-04-10T19:09:16.921Z,57.37
2023-04-10T19:11:56.571Z,57.73
2023-04-10T19:14:37.776Z,57.85
2023-04-10T19:17:17.251Z,58.31
2023-04-10T19:19:57.313Z,58.58
2023-04-10T19:22:36.746Z,58.55
2023-04-10T19:25:16.419Z,58.47
2023-04-10T19:27:55.699Z,58.67
2023-04-10T19:30:35.016Z,58.68
2023-04-10T19:33:15.101Z,59.05
2023-04-10T19:35:54.160Z,59.22
2023-04-10T19:38:33.683Z,59.08
2023-04-10T19:41:21.116Z,59.45
2023-04-10T19:44:01.708Z,59.51
2023-04-10T19:46:32.838Z,59.57
2023-04-10T19:49:13.118Z,59.67
2023-04-10T19:51:52.060Z,59.60
2023-04-10T19:54:32.290Z,59.74
2023-04-10T19:57:03.930Z,59.86
2023-04-10T19:59:44.737Z,60.31
2023-04-10T20:02:16.338Z,60.73
2023-04-10T20:04:48.582Z,60.83
2023-04-10T20:07:25.274Z,61.14
2023-04-10T20:10:05.405Z,61.45
2023-04-10T20:12:36.541Z,61.22
2023-04-10T20:15:16.607Z,61.62
2023-04-10T20:17:55.695Z,62.01
2023-04-10T20:20:34.583Z,61.91
2023-04-10T20:23:14.744Z,61.80
2023-04-10T20:25:53.143Z,62.07
2023-04-10T20:28:33.537Z,62.19
2023-04-10T20:31:15.522Z,62.37
2023-04-10T20:33:55.113Z,62.57
2023-04-10T20:36:34.244Z,62.59
2023-04-10T20:39:14.721Z,63.08
2023-04-10T20:41:53.800Z,62.84
2023-04-10T20:44:33.245Z,62.90
2023-04-10T20:47:13.650Z,63.07
2023-04-10T20:49:52.891Z,63.25
2023-04-10T20:52:31.578Z,63.42
2023-04-10T20:55:04.823Z,63.30
2023-04-10T20:57:44.955Z,63.87
2023-04-10T21:00:25.093Z,63.58
2023-04-10T21:03:08.519Z,63.84
2023-04-10T21:05:53.640Z,64.58
2023-04-10T21:08:34.335Z,64.26
2023-04-10T21:11:14.516Z,64.35
2023-04-10T21:13:54.486Z,64.94
2023-04-10T21:16:35.249Z,65.28
2023-04-10T21:19:16.712Z,65.44
2023-04-10T21:21:56.863Z,65.14
2023-04-10T21:24:36.373Z,65.29
2023-04-10T21:27:15.890Z,65.65
2023-04-10T21:29:55.029Z,66.05
2023-04-10T21:32:33.244Z,65.99
2023-04-10T21:35:14.386Z,66.28
2023-04-10T21:38:02.047Z,65.78
2023-04-10T21:40:41.174Z,66.11
2023-04-10T21:43:20.917Z,66.86
2023-04-10T21:46:02.784Z,66.76
2023-04-10T21:48:43.071Z,66.86
2023-04-10T21:51:22.402Z,66.42
2023-04-10T21:54:01.440Z,66.41
2023-04-10T21:56:41.610Z,66.30
2023-04-10T21:59:21.533Z,66.74
2023-04-10T22:02:01.835Z,67.33
2023-04-10T22:04:33.091Z,67.52
2023-04-10T22:07:14.811Z,67.62
2023-04-10T22:09:54.474Z,67.61
2023-04-10T22:12:25.480Z,67.57
2023-04-10T22:15:08.107Z,67.68
2023-04-10T22:17:47.897Z,67.80
2023-04-10T22:20:27.443Z,67.78
2023-04-10T22:23:09.233Z,67.88
2023-04-10T22:25:48.487Z,68.12
2023-04-10T22:28:27.971Z,68.30
2023-04-10T22:30:57.996Z,68.28
2023-04-10T22:33:33.769Z,68.46
2023-04-10T22:36:09.346Z,68.72
2023-04-10T22:38:48.381Z,69.06
2023-04-10T22:41:28.786Z,68.69
2023-04-10T22:44:09.748Z,68.49
2023-04-10T22:46:49.023Z,68.89
2023-04-10T22:49:28.025Z,69.32
2023-04-10T22:52:08.769Z,69.43
2023-04-10T22:54:39.015Z,69.46
2023-04-10T22:57:19.748Z,69.32
2023-04-10T23:00:00.582Z,69.26
2023-04-10T23:02:31.846Z,69.38
2023-04-10T23:05:14.838Z,69.28
2023-04-10T23:07:54.188Z,69.11
2023-04-10T23:10:33.558Z,69.62
2023-04-10T23:13:15.995Z,69.49
2023-04-10T23:16:02.713Z,69.47
2023-04-10T23:18:42.081Z,69.94
2023-04-10T23:21:22.016Z,69.96
2023-04-10T23:23:52.069Z,69.80
2023-04-10T23:26:34.035Z,69.97
2023-04-10T23:29:15.651Z,70.18
2023-04-10T23:31:55.625Z,69.90
2023-04-10T23:34:35.562Z,69.86
2023-04-10T23:37:15.194Z,70.04
2023-04-10T23:39:54.135Z,70.32
2023-04-10T23:42:33.966Z,70.62
2023-04-10T23:45:15.018Z,70.76
2023-04-10T23:47:54.387Z,70.68
2023-04-10T23:50:25.239Z,70.61
2023-04-10T23:52:55.318Z,70.85
2023-04-10T23:55:31.528Z,71.13
2023-04-10T23:58:11.031Z,71.19
